sensor_id;sensor_type;location;lat;lon;timestamp;temperature;humidity
16625;DHT22;8426;48.496;9.098;2023-08-24T07:16:33;19.90;99.90
16625;DHT22;8426;48.496;9.098;2023-08-24T07:21:37;20.20;99.90
16625;DHT22;8426;48.496;9.098;2023-08-24T07:26:41;20.60;99.90
16625;DHT22;8426;48.496;9.098;2023-08-24T07:31:46;20.70;99.90
16625;DHT22;8426;48.496;9.098;2023-08-24T07:36:51;21.10;99.90
16625;DHT22;8426;48.496;9.098;2023-08-24T07:41:55;22.80;99.90
16625;DHT22;8426;48.496;9.098;2023-08-24T07:47:04;22.80;99.90
16625;DHT22;8426;48.496;9.098;2023-08-24T07:52:10;22.40;99.90
16625;DHT22;8426;48.496;9.098;2023-08-24T07:57:21;24.80;99.90
16625;DHT22;8426;48.496;9.098;2023-08-24T08:02:27;29.20;99.90
16625;DHT22;8426;48.496;9.098;2023-08-24T08:07:33;31.00;99.90
16625;DHT22;8426;48.496;9.098;2023-08-24T08:12:36;32.10;99.90
16625;DHT22;8426;48.496;9.098;2023-08-24T08:17:41;32.20;99.90
16625;DHT22;8426;48.496;9.098;2023-08-24T08:22:51;33.00;99.90
16625;DHT22;8426;48.496;9.098;2023-08-24T08:27:55;34.00;99.90
16625;DHT22;8426;48.496;9.098;2023-08-24T08:33:00;33.90;99.70
16625;DHT22;8426;48.496;9.098;2023-08-24T08:38:06;34.50;99.60
16625;DHT22;8426;48.496;9.098;2023-08-24T08:43:10;34.70;97.30
16625;DHT22;8426;48.496;9.098;2023-08-24T08:48:18;34.60;97.10
16625;DHT22;8426;48.496;9.098;2023-08-24T08:53:23;34.40;98.30
16625;DHT22;8426;48.496;9.098;2023-08-24T08:58:31;33.40;99.10
16625;DHT22;8426;48.496;9.098;2023-08-24T09:03:39;33.90;97.60
16625;DHT22;8426;48.496;9.098;2023-08-24T09:08:46;34.90;97.30
16625;DHT22;8426;48.496;9.098;2023-08-24T09:13:54;34.90;97.30
16625;DHT22;8426;48.496;9.098;2023-08-24T09:18:59;35.00;96.40
16625;DHT22;8426;48.496;9.098;2023-08-24T09:24:08;35.10;95.60
16625;DHT22;8426;48.496;9.098;2023-08-24T09:29:17;35.10;96.00
16625;DHT22;8426;48.496;9.098;2023-08-24T09:34:24;34.80;96.20
16625;DHT22;8426;48.496;9.098;2023-08-24T09:39:32;34.00;97.60
16625;DHT22;8426;48.496;9.098;2023-08-24T09:44:35;34.80;96.40
16625;DHT22;8426;48.496;9.098;2023-08-24T09:49:40;35.00;97.20
16625;DHT22;8426;48.496;9.098;2023-08-24T09:54:46;34.50;97.10
16625;DHT22;8426;48.496;9.098;2023-08-24T09:59:52;34.20;98.10
16625;DHT22;8426;48.496;9.098;2023-08-24T10:04:59;34.10;97.90
16625;DHT22;8426;48.496;9.098;2023-08-24T10:10:09;33.50;99.20
16625;DHT22;8426;48.496;9.098;2023-08-24T10:15:15;33.00;99.30
16625;DHT22;8426;48.496;9.098;2023-08-24T10:20:28;32.60;99.00
16625;DHT22;8426;48.496;9.098;2023-08-24T10:25:40;32.10;99.60
16625;DHT22;8426;48.496;9.098;2023-08-24T10:30:47;32.20;99.90
16625;DHT22;8426;48.496;9.098;2023-08-24T10:35:55;31.90;99.90
16625;DHT22;8426;48.496;9.098;2023-08-24T10:41:02;31.80;99.90
16625;DHT22;8426;48.496;9.098;2023-08-24T10:46:14;32.00;99.90
16625;DHT22;8426;48.496;9.098;2023-08-24T10:51:22;31.40;99.90
16625;DHT22;8426;48.496;9.098;2023-08-24T10:56:35;32.40;99.90
16625;DHT22;8426;48.496;9.098;2023-08-24T11:01:55;32.70;99.90
16625;DHT22;8426;48.496;9.098;2023-08-24T11:07:01;32.30;99.90
16625;DHT22;8426;48.496;9.098;2023-08-24T11:12:05;31.90;99.90
16625;DHT22;8426;48.496;9.098;2023-08-24T11:17:18;31.40;99.90
16625;DHT22;8426;48.496;9.098;2023-08-24T11:22:37;31.30;99.90
16625;DHT22;8426;48.496;9.098;2023-08-24T11:27:43;31.90;99.90
16625;DHT22;8426;48.496;9.098;2023-08-24T11:32:52;32.30;99.90
16625;DHT22;8426;48.496;9.098;2023-08-24T11:37:58;32.40;99.90
16625;DHT22;8426;48.496;9.098;2023-08-24T11:43:04;32.80;99.90
16625;DHT22;8426;48.496;9.098;2023-08-24T11:48:07;32.50;99.90
16625;DHT22;8426;48.496;9.098;2023-08-24T11:53:38;33.00;99.90
16625;DHT22;8426;48.496;9.098;2023-08-24T11:59:03;33.60;99.90
16625;DHT22;8426;48.496;9.098;2023-08-24T12:04:07;32.90;99.90
16625;DHT22;8426;48.496;9.098;2023-08-24T12:09:37;32.90;99.90
16625;DHT22;8426;48.496;9.098;2023-08-24T12:15:03;33.30;99.90
16625;DHT22;8426;48.496;9.098;2023-08-24T12:20:15;33.60;99.90
16625;DHT22;8426;48.496;9.098;2023-08-24T12:26:08;33.60;99.90
16625;DHT22;8426;48.496;9.098;2023-08-24T12:31:42;33.80;99.90
16625;DHT22;8426;48.496;9.098;2023-08-24T12:37:07;34.00;99.90
16625;DHT22;8426;48.496;9.098;2023-08-24T12:48:09;34.40;99.90
16625;DHT22;8426;48.496;9.098;2023-08-24T12:53:54;34.50;99.90
16625;DHT22;8426;48.496;9.098;2023-08-24T12:59:04;34.80;99.10
16625;DHT22;8426;48.496;9.098;2023-08-24T13:04:12;34.60;99.90
16625;DHT22;8426;48.496;9.098;2023-08-24T13:09:17;34.90;98.40
16625;DHT22;8426;48.496;9.098;2023-08-24T13:14:35;34.90;98.40
16625;DHT22;8426;48.496;9.098;2023-08-24T13:19:40;34.80;99.90
16625;DHT22;8426;48.496;9.098;2023-08-24T13:24:46;34.70;99.40
16625;DHT22;8426;48.496;9.098;2023-08-24T13:29:50;33.90;99.30
16625;DHT22;8426;48.496;9.098;2023-08-24T13:35:00;33.50;99.90
16625;DHT22;8426;48.496;9.098;2023-08-24T13:40:06;33.10;99.90
16625;DHT22;8426;48.496;9.098;2023-08-24T13:45:12;33.10;99.90
16625;DHT22;8426;48.496;9.098;2023-08-24T13:50:19;34.30;99.70
16625;DHT22;8426;48.496;9.098;2023-08-24T13:55:24;34.50;97.80
16625;DHT22;8426;48.496;9.098;2023-08-24T14:00:29;34.20;99.00
16625;DHT22;8426;48.496;9.098;2023-08-24T14:05:38;33.80;99.30
16625;DHT22;8426;48.496;9.098;2023-08-24T14:10:43;33.80;99.80
16625;DHT22;8426;48.496;9.098;2023-08-24T14:15:48;34.20;98.50
16625;DHT22;8426;48.496;9.098;2023-08-24T14:20:54;34.40;98.60
16625;DHT22;8426;48.496;9.098;2023-08-24T14:25:57;34.40;99.20
16625;DHT22;8426;48.496;9.098;2023-08-24T14:31:01;35.10;96.80
16625;DHT22;8426;48.496;9.098;2023-08-24T14:36:07;35.10;97.90
16625;DHT22;8426;48.496;9.098;2023-08-24T14:41:12;34.20;99.80
16625;DHT22;8426;48.496;9.098;2023-08-24T14:46:17;33.30;99.80
16625;DHT22;8426;48.496;9.098;2023-08-24T14:51:23;32.90;99.90
16625;DHT22;8426;48.496;9.098;2023-08-24T14:56:26;33.00;99.90
16625;DHT22;8426;48.496;9.098;2023-08-24T15:01:31;33.40;99.90
16625;DHT22;8426;48.496;9.098;2023-08-24T15:06:37;33.30;99.90
16625;DHT22;8426;48.496;9.098;2023-08-24T15:11:42;33.40;99.90
16625;DHT22;8426;48.496;9.098;2023-08-24T15:16:45;33.10;99.90
16625;DHT22;8426;48.496;9.098;2023-08-24T15:22:19;32.70;99.90
16625;DHT22;8426;48.496;9.098;2023-08-24T15:27:23;32.60;99.90
16625;DHT22;8426;48.496;9.098;2023-08-24T15:32:28;31.50;99.90
16625;DHT22;8426;48.496;9.098;2023-08-24T15:37:36;30.70;99.90
16625;DHT22;8426;48.496;9.098;2023-08-24T15:42:41;29.80;99.90
16625;DHT22;8426;48.496;9.098;2023-08-24T15:47:48;29.30;99.90
16625;DHT22;8426;48.496;9.098;2023-08-24T15:52:53;29.00;99.90
16625;DHT22;8426;48.496;9.098;2023-08-24T15:58:07;28.90;99.90
16625;DHT22;8426;48.496;9.098;2023-08-24T16:03:10;28.90;99.90
16625;DHT22;8426;48.496;9.098;2023-08-24T16:08:15;28.40;99.90
16625;DHT22;8426;48.496;9.098;2023-08-24T16:13:20;28.20;99.90
16625;DHT22;8426;48.496;9.098;2023-08-24T16:18:28;28.00;99.90
16625;DHT22;8426;48.496;9.098;2023-08-24T16:23:38;28.10;99.90
16625;DHT22;8426;48.496;9.098;2023-08-24T16:28:43;28.00;99.90
16625;DHT22;8426;48.496;9.098;2023-08-24T16:33:48;27.90;99.90
16625;DHT22;8426;48.496;9.098;2023-08-24T16:38:52;27.70;99.90
16625;DHT22;8426;48.496;9.098;2023-08-24T16:43:56;27.40;99.90
16625;DHT22;8426;48.496;9.098;2023-08-24T16:48:59;27.40;99.90
16625;DHT22;8426;48.496;9.098;2023-08-24T16:54:05;27.20;99.90
16625;DHT22;8426;48.496;9.098;2023-08-24T16:59:09;26.80;99.90
16625;DHT22;8426;48.496;9.098;2023-08-24T17:04:12;26.70;99.90
16625;DHT22;8426;48.496;9.098;2023-08-24T17:09:21;26.40;99.90
16625;DHT22;8426;48.496;9.098;2023-08-24T17:14:30;26.50;99.90
16625;DHT22;8426;48.496;9.098;2023-08-24T17:19:35;26.40;99.90
16625;DHT22;8426;48.496;9.098;2023-08-24T17:24:39;26.10;99.90
16625;DHT22;8426;48.496;9.098;2023-08-24T17:29:43;26.20;99.90
16625;DHT22;8426;48.496;9.098;2023-08-24T17:34:46;26.20;99.90
16625;DHT22;8426;48.496;9.098;2023-08-24T17:39:51;26.30;99.90
16625;DHT22;8426;48.496;9.098;2023-08-24T17:44:55;26.10;99.90
16625;DHT22;8426;48.496;9.098;2023-08-24T17:50:00;25.90;99.90
16625;DHT22;8426;48.496;9.098;2023-08-24T17:55:07;25.60;99.90
16625;DHT22;8426;48.496;9.098;2023-08-24T18:00:11;25.30;99.90
16625;DHT22;8426;48.496;9.098;2023-08-24T18:05:18;25.10;99.90
16625;DHT22;8426;48.496;9.098;2023-08-24T18:10:28;25.00;99.90
